KPWC

Pine River Regional Airport

Pine River, Minnesota, USA
METAR KPWC 101535Z AUTO 00000KT 10SM CLR M06/M09 A3005 RMK AO2
Observed Flight Rules
Dec-10 @ 15:35 UTC (12 minutes ago) Visual Flight Rules
Visibility Clouds
10 miles
  • Clear skies
Temperatures Readings
Current -6°C / 21°F
Dewpoint -9°C / 16°F
Humidity 80%
Altimeter 30.05" Hg
Pressure 1018 hPa
Elevation 395
METAR KPWC 101535Z AUTO 00000KT 10SM CLR M06/M09 A3005 RMK AO2
Observed Flight Rules
Dec-10 @ 15:35 UTC
(12 minutes ago)
VFR
Clouds
  • Clear skies
Temperature Dewpoint
-6°C / 21°F -9°C / 16°F
Humidity Altimeter Pressure
80% 30.05" Hg 1018 hPa